Time;durP1;ratioP1;P1;durP2;ratioP2;P2;SDS_P1;SDS_P2;PMS_P1;PMS_P2;Temp;Humidity;BMP_temperature;BMP_pressure;BME280_temperature;BME280_humidity;BME280_pressure;Samples;Min_cycle;Max_cycle;Signal;HPM_P1;HPM_P2
2022/11/05 00:10:38;;;;;;;25.55;14.75;;;;;;;5.50;100.00;67386.59;5045146;28;20357;-83
2022/11/05 00:18:35;;;;;;;22.70;15.85;;;;;;;5.30;100.00;67364.00;5042348;28;20101;-83
2022/11/05 00:21:00;;;;;;;22.00;16.58;;;;;;;5.37;100.00;67374.53;5047826;28;20068;-83
2022/11/05 00:26:11;;;;;;;25.05;16.65;;;;;;;5.37;100.00;67377.19;5073486;28;20048;-83
2022/11/05 00:28:37;;;;;;;25.73;16.40;;;;;;;5.40;100.00;67375.28;5039920;28;20029;-83
2022/11/05 00:31:10;;;;;;;25.25;16.70;;;;;;;5.41;100.00;67379.06;5044202;28;20092;-83
2022/11/05 00:33:40;;;;;;;19.40;13.88;;;;;;;5.36;100.00;67370.78;5046287;28;20223;-83
2022/11/05 00:36:06;;;;;;;;;;;;;;;5.35;100.00;67372.28;5045554;28;20041;-83
2022/11/05 00:38:31;;;;;;;21.20;14.95;;;;;;;5.26;100.00;67360.03;5042714;28;19943;-83
2022/11/05 00:40:57;;;;;;;22.83;16.80;;;;;;;5.25;100.00;67364.19;5045417;28;20055;-83
2022/11/05 00:46:07;;;;;;;21.52;16.02;;;;;;;5.29;100.00;67362.88;5068938;28;20641;-83
2022/11/05 00:51:16;;;;;;;23.60;18.13;;;;;;;5.23;100.00;67361.38;5043864;28;20513;-83
2022/11/05 00:53:41;;;;;;;23.95;18.58;;;;;;;;;;5045000;28;20037;-83
2022/11/05 00:56:07;;;;;;;33.60;19.67;;;;;;;5.53;100.00;67392.63;5045877;28;20045;-83
2022/11/05 00:58:32;;;;;;;31.58;21.98;;;;;;;5.63;100.00;67403.34;5044111;28;20122;-83
2022/11/05 01:00:59;;;;;;;30.92;20.38;;;;;;;5.77;100.00;67416.53;5050600;28;20029;-83
2022/11/05 01:03:30;;;;;;;33.33;22.33;;;;;;;5.80;100.00;67419.38;5043985;28;20084;-83
2022/11/05 01:06:08;;;;;;;29.38;20.17;;;;;;;5.91;100.00;67431.25;5044872;28;20056;-83
2022/11/05 01:08:33;;;;;;;31.60;20.70;;;;;;;5.91;100.00;67434.44;5043054;28;20040;-83
2022/11/05 01:10:59;;;;;;;28.50;20.38;;;;;;;;;;5045045;28;20120;-83
2022/11/05 01:13:28;;;;;;;28.85;20.90;;;;;;;5.98;100.00;67442.38;5043607;28;20706;-83
2022/11/05 01:15:54;;;;;;;27.70;19.88;;;;;;;5.97;100.00;67438.59;5058919;28;20037;-83
2022/11/05 01:18:21;;;;;;;25.48;17.33;;;;;;;5.93;100.00;67434.09;5049010;28;20494;-83
2022/11/05 01:20:47;;;;;;;26.65;17.30;;;;;;;5.94;100.00;67437.28;5050070;28;20045;-83
2022/11/05 01:23:12;;;;;;;28.23;18.25;;;;;;;5.94;100.00;67437.84;5047423;28;20037;-83
2022/11/05 01:25:38;;;;;;;30.92;16.52;;;;;;;;;;5041376;28;20049;-83
2022/11/05 01:28:03;;;;;;;26.10;18.73;;;;;;;6.00;100.00;67442.00;5044154;28;20033;-82
2022/11/05 01:30:30;;;;;;;27.70;16.67;;;;;;;6.01;100.00;67447.84;5039673;28;20041;-83
2022/11/05 01:32:55;;;;;;;28.05;18.17;;;;;;;6.03;100.00;67448.03;5057433;28;20037;-83
2022/11/05 01:35:21;;;;;;;29.25;17.60;;;;;;;6.05;100.00;67447.66;5044788;28;20171;-83
2022/11/05 01:37:47;;;;;;;24.65;17.27;;;;;;;6.01;100.00;67445.78;5045575;28;20036;-83
2022/11/05 01:40:16;;;;;;;24.48;16.23;;;;;;;6.00;100.00;67446.72;5045555;28;20041;-83
2022/11/05 01:42:42;;;;;;;28.40;18.67;;;;;;;6.02;100.00;67443.69;5051283;28;20037;-83
2022/11/05 01:45:13;;;;;;;28.55;18.48;;;;;;;6.00;100.00;67441.44;5048615;28;20704;-83
2022/11/05 01:47:45;;;;;;;27.25;17.02;;;;;;;;;;5033257;28;20414;-83
2022/11/05 01:50:27;;;;;;;28.90;19.75;;;;;;;6.03;100.00;67444.81;5044046;28;20037;-82
2022/11/05 01:53:01;;;;;;;24.48;16.08;;;;;;;5.99;100.00;67440.31;5050908;28;20064;-83
2022/11/05 01:55:32;;;;;;;27.70;16.90;;;;;;;6.00;100.00;67444.06;5047537;28;20045;-83
2022/11/05 01:58:01;;;;;;;26.45;17.23;;;;;;;5.96;100.00;67440.13;5041502;28;20041;-83
2022/11/05 02:00:27;;;;;;;26.73;18.58;;;;;;;5.97;100.00;67438.59;5042101;28;20033;-83
2022/11/05 02:02:52;;;;;;;29.00;18.95;;;;;;;5.95;100.00;67441.63;5051993;28;20390;-83
2022/11/05 02:05:18;;;;;;;26.80;17.73;;;;;;;5.86;100.00;67426.16;5043814;28;20033;-83
2022/11/05 02:07:46;;;;;;;26.10;17.85;;;;;;;5.82;100.00;67422.19;5053344;28;20041;-83
2022/11/05 02:10:13;;;;;;;26.38;17.88;;;;;;;5.75;100.00;67416.34;5052353;28;20059;-83
2022/11/05 02:12:42;;;;;;;20.45;16.33;;;;;;;5.72;100.00;67412.97;5041054;28;20596;-83
2022/11/05 02:15:17;;;;;;;27.60;17.90;;;;;;;5.68;100.00;67411.09;5048008;28;20071;-83
2022/11/05 02:18:04;;;;;;;25.55;17.50;;;;;;;5.55;100.00;67394.31;5046120;28;20034;-83
2022/11/05 02:20:52;;;;;;;24.95;17.30;;;;;;;5.41;100.00;67376.44;5039795;28;20067;-83
2022/11/05 02:23:36;;;;;;;26.45;17.75;;;;;;;5.24;100.00;67357.78;5036193;28;20037;-83
2022/11/05 02:26:25;;;;;;;23.98;18.15;;;;;;;5.13;100.00;67348.56;5072058;28;20568;-83
2022/11/05 02:29:12;;;;;;;23.15;16.33;;;;;;;5.01;100.00;67337.66;5035504;28;20053;-83
2022/11/05 02:32:10;;;;;;;27.60;17.83;;;;;;;5.03;100.00;67339.34;5051397;28;20737;-83
2022/11/05 02:34:47;;;;;;;25.95;17.60;;;;;;;4.97;100.00;67330.47;5049117;28;20048;-83
2022/11/05 02:37:28;;;;;;;26.58;18.65;;;;;;;4.90;100.00;67320.50;5049347;28;20102;-82
2022/11/05 02:39:57;;;;;;;25.50;18.00;;;;;;;4.87;100.00;67319.19;5049447;28;20049;-83
2022/11/05 02:42:32;;;;;;;29.10;17.05;;;;;;;4.79;100.00;67312.81;5047558;28;20095;-83
2022/11/05 02:45:22;;;;;;;28.17;19.20;;;;;;;4.75;100.00;67306.78;5052641;28;20079;-83
2022/11/05 02:48:04;;;;;;;28.13;16.92;;;;;;;4.72;100.00;67300.75;5048431;28;20348;-83
2022/11/05 02:50:34;;;;;;;27.95;18.00;;;;;;;4.67;100.00;67297.19;5049207;28;20033;-83
2022/11/05 02:53:10;;;;;;;22.48;17.83;;;;;;;4.63;100.00;67295.28;5043107;28;20051;-83
2022/11/05 02:55:48;;;;;;;23.70;16.20;;;;;;;4.58;100.00;67287.03;5045844;28;20036;-83
2022/11/05 02:58:13;;;;;;;23.77;17.35;;;;;;;4.61;100.00;67288.34;5054678;28;20033;-83
2022/11/05 03:00:52;;;;;;;21.23;16.48;;;;;;;4.51;100.00;67282.31;5046192;28;20053;-83
2022/11/05 03:03:21;;;;;;;24.17;18.88;;;;;;;4.45;100.00;67272.91;5055263;28;20052;-83
2022/11/05 03:05:49;;;;;;;;;;;;;;;4.43;100.00;67273.84;5055213;28;20036;-83
2022/11/05 03:08:26;;;;;;;23.30;17.05;;;;;;;4.35;100.00;67264.81;5054143;28;19920;-83
2022/11/05 03:11:11;;;;;;;23.48;16.95;;;;;;;4.25;100.00;67251.44;5055845;28;20056;-83
2022/11/05 03:13:52;;;;;;;27.25;18.58;;;;;;;4.25;100.00;67250.88;5053138;28;20398;-83
2022/11/05 03:16:26;;;;;;;25.77;16.88;;;;;;;4.29;100.00;67253.34;5056317;28;20138;-83
2022/11/05 03:19:09;;;;;;;23.85;16.67;;;;;;;4.16;100.00;67243.94;5049617;28;20033;-82
2022/11/05 03:21:46;;;;;;;25.67;17.38;;;;;;;4.06;100.00;67227.94;5046752;28;20033;-82
2022/11/05 03:24:20;;;;;;;24.42;17.38;;;;;;;4.13;100.00;67240.53;5055833;28;20045;-82
2022/11/05 03:26:53;;;;;;;26.00;18.30;;;;;;;4.09;100.00;67230.78;5053144;28;20768;-82
2022/11/05 03:29:23;;;;;;;22.10;17.40;;;;;;;4.05;100.00;67226.81;5059225;28;20090;-82
2022/11/05 03:31:51;;;;;;;22.85;17.05;;;;;;;3.98;100.00;67224.19;5039126;28;20038;-82
2022/11/05 03:34:21;;;;;;;27.05;18.17;;;;;;;3.97;100.00;67219.84;5034948;28;20041;-82
2022/11/05 03:36:50;;;;;;;26.00;17.02;;;;;;;3.97;100.00;67222.47;5032969;28;20428;-82
2022/11/05 03:39:21;;;;;;;22.00;17.00;;;;;;;3.91;100.00;67213.06;5046333;28;20549;-82
2022/11/05 03:41:51;;;;;;;22.92;17.73;;;;;;;3.82;100.00;67201.41;5032164;28;20274;-83
2022/11/05 03:44:24;;;;;;;21.35;16.45;;;;;;;3.82;100.00;67201.41;5037218;28;20517;-83
2022/11/05 03:46:51;;;;;;;23.70;14.60;;;;;;;3.78;100.00;67202.16;5047191;28;20119;-82
2022/11/05 03:49:24;;;;;;;19.48;15.85;;;;;;;3.79;100.00;67198.03;5051968;28;20112;-82
2022/11/05 03:52:00;;;;;;;20.73;15.75;;;;;;;3.79;100.00;67203.28;5051550;28;20045;-84
2022/11/05 03:54:26;;;;;;;21.42;16.10;;;;;;;3.83;100.00;67207.81;5055385;28;20040;-84
2022/11/05 03:57:13;;;;;;;20.70;14.32;;;;;;;3.77;100.00;67198.41;5054353;28;20072;-84
2022/11/05 03:59:42;;;;;;;22.92;16.42;;;;;;;3.76;100.00;67196.72;5050035;28;20140;-84
2022/11/05 04:02:11;;;;;;;20.40;15.88;;;;;;;3.79;100.00;67200.09;5050474;28;20037;-84
2022/11/05 04:04:36;;;;;;;17.80;14.55;;;;;;;;;;5052881;28;20037;-85
2022/11/05 04:15:12;;;;;;;21.30;15.13;;;;;;;3.78;100.00;67198.97;5045990;28;20052;-84
2022/11/05 04:17:38;;;;;;;19.63;15.50;;;;;;;3.71;100.00;67191.66;5038101;28;20299;-84
2022/11/05 04:25:31;;;;;;;18.10;14.68;;;;;;;3.77;100.00;67198.41;5048545;28;20048;-84
2022/11/05 04:27:59;;;;;;;18.70;13.80;;;;;;;3.62;100.00;67178.84;5053214;28;20032;-85
2022/11/05 04:30:25;;;;;;;22.27;15.68;;;;;;;3.58;100.00;67176.97;5049190;28;20096;-84
2022/11/05 04:32:59;;;;;;;21.13;17.27;;;;;;;3.74;100.00;67195.03;5054265;28;20148;-84
2022/11/05 04:35:25;;;;;;;22.23;16.88;;;;;;;3.89;100.00;67210.84;5055760;28;20120;-84
2022/11/05 04:37:51;;;;;;;26.13;19.02;;;;;;;3.99;100.00;67222.66;5046917;28;20041;-84
2022/11/05 04:40:16;;;;;;;21.83;16.88;;;;;;;3.99;100.00;67222.66;5055423;28;20048;-84
2022/11/05 04:42:41;;;;;;;23.60;17.13;;;;;;;4.08;100.00;67229.63;5045064;28;20033;-84
2022/11/05 04:45:07;;;;;;;23.92;16.92;;;;;;;4.14;100.00;67238.47;5051879;28;20423;-84
2022/11/05 04:47:32;;;;;;;26.60;18.98;;;;;;;4.19;100.00;67244.69;5053573;28;20032;-84
2022/11/05 04:49:57;;;;;;;26.67;18.83;;;;;;;4.30;100.00;67257.09;5046088;28;20075;-84
2022/11/05 04:52:23;;;;;;;30.27;19.60;;;;;;;4.40;100.00;67267.25;5046320;28;20040;-84
2022/11/05 04:54:48;;;;;;;25.40;18.38;;;;;;;4.37;100.00;67264.44;5056124;28;20036;-84
2022/11/05 04:57:13;;;;;;;21.80;15.68;;;;;;;4.18;100.00;67246.19;5049051;28;20045;-85
2022/11/05 04:59:39;;;;;;;27.40;20.70;;;;;;;4.21;100.00;67244.31;5051947;28;20077;-85
2022/11/05 05:02:05;;;;;;;24.58;17.45;;;;;;;4.27;100.00;67253.72;5048603;28;20335;-85
2022/11/05 05:04:30;;;;;;;28.17;18.08;;;;;;;4.22;100.00;67248.06;5047453;28;20065;-85
2022/11/05 05:06:55;;;;;;;28.02;19.02;;;;;;;4.35;100.00;67264.81;5041072;28;20037;-84
2022/11/05 05:09:21;;;;;;;33.47;22.80;;;;;;;4.38;100.00;67265.56;5045252;28;20048;-84
2022/11/05 05:11:46;;;;;;;29.92;20.65;;;;;;;4.41;100.00;67265.75;5051379;28;20061;-84
2022/11/05 05:14:11;;;;;;;33.13;21.85;;;;;;;;;;5059121;28;20127;-84
2022/11/05 05:16:37;;;;;;;30.85;20.77;;;;;;;;;;5046052;28;20133;-84
2022/11/05 05:19:02;;;;;;;27.85;19.17;;;;;;;4.65;100.00;67294.91;5041415;28;20103;-84
2022/11/05 05:21:40;;;;;;;34.80;22.75;;;;;;;4.70;100.00;67301.13;5049801;28;20106;-84
2022/11/05 05:24:17;;;;;;;33.53;18.45;;;;;;;4.79;100.00;67307.53;5038999;28;20046;-84
2022/11/05 05:26:51;;;;;;;34.67;21.33;;;;;;;4.73;100.00;67301.31;5048799;28;20123;-84
2022/11/05 05:29:17;;;;;;;35.90;24.42;;;;;;;4.81;100.00;67315.06;5051102;28;20041;-84
2022/11/05 05:31:43;;;;;;;29.20;20.30;;;;;;;4.82;100.00;67311.47;5048788;28;20051;-84
2022/11/05 05:34:13;;;;;;;30.60;20.60;;;;;;;4.83;100.00;67312.59;5045266;28;20608;-84
2022/11/05 05:36:38;;;;;;;34.22;22.30;;;;;;;4.78;100.00;67309.59;5040239;28;20899;-84
2022/11/05 05:39:05;;;;;;;29.15;19.77;;;;;;;4.86;100.00;67315.41;5048380;28;20125;-85
2022/11/05 05:41:31;;;;;;;31.70;20.05;;;;;;;4.82;100.00;67310.91;5043971;28;20087;-84
2022/11/05 05:43:56;;;;;;;28.92;21.42;;;;;;;4.74;100.00;67308.28;5045884;28;20441;-84
2022/11/05 05:46:21;;;;;;;31.30;22.45;;;;;;;4.71;100.00;67299.63;5048803;28;20068;-84
2022/11/05 05:48:49;;;;;;;33.55;25.02;;;;;;;4.66;100.00;67296.63;5040706;28;20041;-84
2022/11/05 05:51:14;;;;;;;38.53;24.48;;;;;;;4.75;100.00;67303.59;5031759;28;20414;-83
2022/11/05 05:53:40;;;;;;;36.90;26.63;;;;;;;4.82;100.00;67311.47;5031042;28;20033;-83
2022/11/05 05:56:06;;;;;;;38.38;26.38;;;;;;;4.77;100.00;67305.25;5048085;28;20045;-84
2022/11/05 05:58:37;;;;;;;37.88;25.98;;;;;;;4.70;100.00;67301.13;5051541;28;20047;-84
2022/11/05 06:01:10;;;;;;;37.33;26.67;;;;;;;4.69;100.00;67299.41;5066424;28;20048;-84
2022/11/05 06:03:36;;;;;;;35.55;22.00;;;;;;;4.67;100.00;67294.53;5048424;28;20063;-84
2022/11/05 06:06:07;;;;;;;36.38;24.80;;;;;;;4.72;100.00;67300.75;5052554;28;20091;-84
2022/11/05 06:08:33;;;;;;;34.17;24.90;;;;;;;4.70;100.00;67301.13;5054036;28;20044;-84
2022/11/05 06:10:58;;;;;;;32.88;24.23;;;;;;;;;;5035254;28;20041;-84
2022/11/05 06:13:25;;;;;;;37.50;26.40;;;;;;;4.62;100.00;67292.09;5034599;28;20041;-84
2022/11/05 06:15:51;;;;;;;38.22;25.88;;;;;;;4.57;100.00;67288.50;5032333;28;20465;-83
2022/11/05 06:18:16;;;;;;;43.17;29.88;;;;;;;4.65;100.00;67292.84;5043865;28;20065;-83
2022/11/05 06:20:41;;;;;;;34.88;24.65;;;;;;;4.60;100.00;67292.47;5047486;28;20033;-83
2022/11/05 06:23:07;;;;;;;35.05;24.08;;;;;;;4.55;100.00;67286.84;5048452;28;20051;-84
2022/11/05 06:25:32;;;;;;;37.28;25.55;;;;;;;4.49;100.00;67277.44;5047139;28;20124;-84
2022/11/05 06:27:58;;;;;;;38.85;27.17;;;;;;;4.60;100.00;67291.91;5046847;28;20539;-85
2022/11/05 06:30:24;;;;;;;40.90;28.58;;;;;;;4.59;100.00;67291.34;5048143;28;20501;-85
2022/11/05 06:32:49;;;;;;;40.75;24.15;;;;;;;4.56;100.00;67282.69;5047601;28;20036;-84
2022/11/05 06:35:14;;;;;;;35.95;24.85;;;;;;;4.51;100.00;67279.66;5047899;28;20674;-84
2022/11/05 06:37:40;;;;;;;43.03;28.25;;;;;;;4.50;100.00;67279.09;5034421;28;20529;-84
2022/11/05 06:40:07;;;;;;;42.38;30.92;;;;;;;4.53;100.00;67279.84;5036116;28;20049;-84
2022/11/05 06:42:32;;;;;;;40.95;27.25;;;;;;;4.53;100.00;67284.56;5041137;28;20494;-85
2022/11/05 06:44:57;;;;;;;44.30;31.52;;;;;;;4.56;100.00;67282.13;5038403;28;20071;-84
2022/11/05 06:47:23;;;;;;;45.67;30.17;;;;;;;4.57;100.00;67289.06;5047028;28;20098;-85
2022/11/05 06:49:48;;;;;;;48.08;32.58;;;;;;;4.59;100.00;67286.06;5046701;28;20037;-84
2022/11/05 06:52:14;;;;;;;46.13;33.00;;;;;;;4.52;100.00;67280.81;5048139;28;20520;-84
2022/11/05 06:54:41;;;;;;;43.92;31.45;;;;;;;4.51;100.00;67282.31;5038988;28;20038;-84
2022/11/05 06:57:10;;;;;;;46.08;31.30;;;;;;;4.55;100.00;67281.56;5035350;28;20180;-85
2022/11/05 06:59:39;;;;;;;42.08;29.67;;;;;;;4.53;100.00;67284.56;5029392;28;20052;-85
2022/11/05 07:02:05;;;;;;;41.42;28.75;;;;;;;4.47;100.00;67275.72;5047452;28;20061;-84
2022/11/05 07:04:31;;;;;;;44.17;32.42;;;;;;;;;;5047267;28;20119;-84
2022/11/05 07:06:59;;;;;;;47.78;30.95;;;;;;;4.43;100.00;67273.28;5036295;28;20037;-84
2022/11/05 07:09:24;;;;;;;46.33;33.30;;;;;;;4.48;100.00;67278.91;5034870;28;20041;-84
2022/11/05 07:11:50;;;;;;;44.13;28.00;;;;;;;4.47;100.00;67275.16;5038722;28;20062;-85
2022/11/05 07:14:15;;;;;;;39.45;28.67;;;;;;;;;;5034013;28;20032;-84
2022/11/05 07:16:40;;;;;;;42.83;28.48;;;;;;;4.54;100.00;67280.41;5046576;28;20037;-84
2022/11/05 07:19:06;;;;;;;42.20;28.52;;;;;;;4.61;100.00;67288.34;5045431;28;20112;-84
2022/11/05 07:21:31;;;;;;;36.72;28.48;;;;;;;4.65;100.00;67292.84;5041571;28;20040;-84
2022/11/05 07:23:56;;;;;;;41.97;27.42;;;;;;;4.67;100.00;67295.09;5038507;28;20121;-83
2022/11/05 07:26:22;;;;;;;40.42;30.08;;;;;;;4.74;100.00;67305.06;5042945;28;20036;-83
2022/11/05 07:28:47;;;;;;;40.42;27.48;;;;;;;4.74;100.00;67302.44;5040339;28;20060;-83
2022/11/05 07:31:12;;;;;;;40.60;28.90;;;;;;;4.82;100.00;67316.19;5045823;28;20487;-83
2022/11/05 07:33:38;;;;;;;40.80;29.45;;;;;;;4.86;100.00;67320.69;5050770;28;20041;-84
2022/11/05 07:36:03;;;;;;;49.08;32.25;;;;;;;4.91;100.00;67324.28;5052808;28;20041;-83
2022/11/05 07:38:29;;;;;;;44.67;28.45;;;;;;;5.00;100.00;67333.88;5044848;28;20041;-83
2022/11/05 07:40:54;;;;;;;45.53;31.85;;;;;;;5.02;100.00;67338.22;5041017;28;20499;-84
2022/11/05 07:43:19;;;;;;;42.35;30.42;;;;;;;5.08;100.00;67340.28;5040439;28;20041;-84
2022/11/05 07:45:48;;;;;;;41.40;32.38;;;;;;;5.16;100.00;67351.94;5037096;28;20043;-84
2022/11/05 07:48:13;;;;;;;42.73;30.80;;;;;;;5.24;100.00;67359.88;5036590;28;20050;-84
2022/11/05 07:50:38;;;;;;;38.17;29.02;;;;;;;5.30;100.00;67364.00;5034723;28;20314;-84
2022/11/05 07:53:05;;;;;;;41.78;30.05;;;;;;;;;;5037359;28;20037;-84
2022/11/05 07:55:31;;;;;;;41.97;32.75;;;;;;;5.43;100.00;67381.88;5041331;28;20045;-84
2022/11/05 07:57:56;;;;;;;39.70;26.20;;;;;;;5.50;100.00;67391.88;5043336;28;20037;-84
2022/11/05 08:00:24;;;;;;;37.38;25.75;;;;;;;5.58;100.00;67395.66;5060419;28;20048;-84
2022/11/05 08:02:59;;;;;;;35.45;25.52;;;;;;;5.68;100.00;67405.81;5047405;28;20434;-83
2022/11/05 08:05:25;;;;;;;35.45;21.60;;;;;;;;;;5033339;28;20053;-84
2022/11/05 08:07:53;;;;;;;30.05;22.35;;;;;;;5.73;100.00;67412.03;5039759;28;20045;-84
2022/11/05 08:10:18;;;;;;;33.75;23.08;;;;;;;5.78;100.00;67417.69;5041804;28;20069;-84
2022/11/05 08:12:43;;;;;;;39.15;26.77;;;;;;;5.82;100.00;67421.63;5050045;28;20044;-84
2022/11/05 08:15:09;;;;;;;35.80;23.20;;;;;;;5.89;100.00;67429.53;5045262;28;20559;-86
2022/11/05 08:17:35;;;;;;;38.15;25.20;;;;;;;5.93;100.00;67434.09;5040139;28;20096;-86
2022/11/05 08:20:00;;;;;;;35.72;22.83;;;;;;;;;;5035738;28;20048;-87
2022/11/05 08:22:26;;;;;;;31.88;22.13;;;;;;;6.01;100.00;67448.41;5044222;28;20041;-86
2022/11/05 08:24:51;;;;;;;33.55;22.80;;;;;;;6.02;100.00;67446.91;5039896;28;20032;-85
2022/11/05 08:27:16;;;;;;;32.90;21.05;;;;;;;6.07;100.00;67449.34;5035739;28;20083;-85
2022/11/05 08:29:42;;;;;;;29.70;19.42;;;;;;;6.13;100.00;67458.78;5034428;28;20048;-85
2022/11/05 08:32:07;;;;;;;32.22;22.52;;;;;;;6.21;100.00;67464.59;5042545;28;20099;-85
2022/11/05 08:34:33;;;;;;;31.20;21.88;;;;;;;6.31;100.00;67478.56;5039375;28;20041;-85
2022/11/05 08:37:00;;;;;;;30.20;23.00;;;;;;;6.33;100.00;67478.19;5043289;28;20037;-85
2022/11/05 08:39:25;;;;;;;28.65;20.83;;;;;;;6.40;100.00;67485.53;5044036;28;20043;-85
2022/11/05 08:41:51;;;;;;;31.98;23.45;;;;;;;6.48;100.00;67499.88;5040695;28;20119;-85
2022/11/05 08:44:16;;;;;;;30.55;21.75;;;;;;;6.55;100.00;67508.34;5045082;28;20045;-85
2022/11/05 08:46:41;;;;;;;28.48;19.70;;;;;;;;;;5039989;28;20045;-86
2022/11/05 08:49:07;;;;;;;27.90;20.60;;;;;;;;;;5034388;28;20417;-85
2022/11/05 08:51:32;;;;;;;27.77;20.17;;;;;;;6.72;100.00;67521.72;5039927;28;20083;-86
2022/11/05 08:53:57;;;;;;;28.10;20.40;;;;;;;6.77;100.00;67530.00;5036569;28;20041;-85
2022/11/05 08:56:23;;;;;;;34.05;20.38;;;;;;;6.82;100.00;67532.47;5042985;28;20037;-86
2022/11/05 08:58:48;;;;;;;31.38;19.98;;;;;;;6.93;100.00;67544.34;5032709;28;20094;-86
2022/11/05 09:01:14;;;;;;;29.35;21.40;;;;;;;7.07;100.00;67559.59;5033523;28;20524;-86
2022/11/05 09:03:39;;;;;;;26.70;19.60;;;;;;;7.14;100.00;67568.09;5031316;28;20045;-86
2022/11/05 09:06:05;;;;;;;27.33;19.50;;;;;;;7.22;100.00;67579.81;5044467;28;20044;-87
2022/11/05 09:08:30;;;;;;;25.70;17.25;;;;;;;7.29;100.00;67584.50;5032353;28;20091;-86
2022/11/05 09:10:56;;;;;;;20.77;15.27;;;;;;;;;;5038401;28;20130;-86
2022/11/05 09:13:21;;;;;;;23.13;16.50;;;;;;;;;;5045075;28;20132;-87
2022/11/05 09:15:48;;;;;;;23.05;16.13;;;;;;;7.54;100.00;67611.66;5037597;28;20140;-86
2022/11/05 09:18:14;;;;;;;21.02;16.75;;;;;;;7.66;100.00;67625.25;5047665;28;20037;-86
2022/11/05 09:20:40;;;;;;;20.08;14.50;;;;;;;7.75;100.00;67630.16;5042283;28;20041;-87
2022/11/05 09:23:07;;;;;;;20.38;13.73;;;;;;;7.81;100.00;67636.94;5048588;28;20043;-87
2022/11/05 09:25:32;;;;;;;21.98;12.98;;;;;;;7.89;100.00;67651.28;5041715;28;20045;-87
2022/11/05 09:28:08;;;;;;;19.67;13.65;;;;;;;;;;5042006;28;20560;-87
2022/11/05 09:30:33;;;;;;;19.85;12.48;;;;;;;;;;5029416;28;20049;-87
2022/11/05 09:32:58;;;;;;;18.42;11.40;;;;;;;8.10;100.00;67674.50;5030675;28;21471;-87
2022/11/05 09:35:23;;;;;;;17.02;10.35;;;;;;;8.17;100.00;67681.88;5043824;28;20037;-87
2022/11/05 09:37:49;;;;;;;19.65;11.82;;;;;;;8.27;100.00;67692.63;5041539;28;20041;-87
2022/11/05 09:40:16;;;;;;;18.42;11.63;;;;;;;;;;5037886;28;20069;-87
2022/11/05 09:42:45;;;;;;;16.95;10.75;;;;;;;8.33;100.00;67699.44;5044251;28;20110;-87
2022/11/05 09:45:17;;;;;;;14.63;10.18;;;;;;;8.39;100.00;67700.38;5030528;28;20124;-87
2022/11/05 09:47:51;;;;;;;16.35;10.98;;;;;;;;;;5028072;28;20072;-87
2022/11/05 09:50:19;;;;;;;19.40;10.75;;;;;;;;;;5028895;28;20045;-87
2022/11/05 09:52:44;;;;;;;18.48;10.75;;;;;;;8.57;100.00;67726.66;5030046;28;20084;-87
2022/11/05 09:55:22;;;;;;;17.35;10.80;;;;;;;8.63;100.00;67732.88;5048285;28;20075;-87
2022/11/05 09:57:55;;;;;;;17.58;10.57;;;;;;;8.65;100.00;67735.13;5055879;28;20048;-86
2022/11/05 10:00:20;;;;;;;17.20;9.57;;;;;;;;;;5045079;28;20037;-86
2022/11/05 10:02:55;;;;;;;14.77;10.70;;;;;;;8.70;100.00;67740.22;5062088;28;20090;-86
2022/11/05 10:05:22;;;;;;;16.10;10.75;;;;;;;;;;5044191;28;20053;-86
2022/11/05 10:07:52;;;;;;;15.60;10.43;;;;;;;8.93;100.00;67758.34;5026846;28;20042;-86
2022/11/05 10:10:37;;;;;;;15.95;11.48;;;;;;;;;;5028086;28;20056;-88
2022/11/05 10:13:17;;;;;;;15.93;10.20;;;;;;;;;;5042015;28;20051;-83
2022/11/05 10:15:49;;;;;;;17.98;11.93;;;;;;;;;;5040534;28;20029;-83
2022/11/05 10:18:20;;;;;;;15.40;11.48;;;;;;;;;;5070786;28;20130;-84
2022/11/05 10:20:45;;;;;;;14.93;9.80;;;;;;;;;;5040845;28;20364;-83
2022/11/05 10:23:15;;;;;;;15.50;10.43;;;;;;;;;;5042304;28;20041;-84
2022/11/05 10:25:51;;;;;;;16.65;10.65;;;;;;;;;;5040966;28;20045;-84
2022/11/05 10:28:19;;;;;;;16.63;10.52;;;;;;;9.41;97.82;67819.56;5036461;28;20720;-83
2022/11/05 10:30:47;;;;;;;15.15;9.50;;;;;;;9.50;97.35;67831.88;5039442;28;20044;-84
2022/11/05 10:33:15;;;;;;;14.27;11.32;;;;;;;;;;5037789;28;20062;-84
2022/11/05 10:35:48;;;;;;;12.98;9.57;;;;;;;9.57;97.11;67837.13;5044828;28;20048;-89
2022/11/05 10:38:14;;;;;;;16.80;10.73;;;;;;;9.69;97.40;67850.19;5025595;28;20029;-86
2022/11/05 10:40:42;;;;;;;16.05;10.50;;;;;;;9.68;96.54;67849.06;5023560;28;20047;-84
2022/11/05 10:43:16;;;;;;;15.35;10.48;;;;;;;9.73;96.44;67856.81;5031163;28;20045;-85
2022/11/05 10:45:55;;;;;;;13.60;9.70;;;;;;;9.70;96.16;67846.00;5032835;28;20033;-86
2022/11/05 10:48:32;;;;;;;11.80;8.90;;;;;;;9.78;96.40;67859.81;5038018;28;20041;-84
2022/11/05 10:50:57;;;;;;;15.15;9.40;;;;;;;9.89;96.44;67872.28;5035971;28;20037;-84
2022/11/05 10:53:29;;;;;;;17.00;9.85;;;;;;;9.91;95.35;67875.13;5041244;28;20513;-84
2022/11/05 10:55:57;;;;;;;17.92;11.13;;;;;;;;;;5031532;28;20546;-84
2022/11/05 10:58:30;;;;;;;16.33;11.20;;;;;;;10.14;94.79;67902.75;5043822;28;20041;-84
2022/11/05 11:00:55;;;;;;;14.15;9.25;;;;;;;10.15;94.76;67901.78;5040963;28;20518;-85
2022/11/05 11:03:39;;;;;;;14.75;9.13;;;;;;;;;;5037088;28;20191;-85
2022/11/05 11:06:22;;;;;;;17.63;9.25;;;;;;;10.30;94.74;67912.38;5039573;28;20033;-85
2022/11/05 11:08:48;;;;;;;13.32;9.07;;;;;;;;;;5053056;28;20129;-84
2022/11/05 11:11:27;;;;;;;16.17;8.40;;;;;;;10.50;93.37;67935.06;5040733;28;20087;-85
2022/11/05 11:13:55;;;;;;;16.13;8.77;;;;;;;;;;5041379;28;20041;-85
2022/11/05 11:16:24;;;;;;;14.20;8.30;;;;;;;10.56;94.09;67941.31;5036584;28;20045;-84
2022/11/05 11:18:59;;;;;;;14.10;8.83;;;;;;;;;;5031464;28;20052;-85
2022/11/05 11:21:26;;;;;;;11.93;7.55;;;;;;;10.65;92.47;67956.28;5034743;28;20578;-84
2022/11/05 11:23:53;;;;;;;13.50;8.60;;;;;;;;;;5033627;28;20069;-85
2022/11/05 11:26:20;;;;;;;10.68;7.15;;;;;;;10.70;92.19;67957.19;5030064;28;20045;-86
2022/11/05 11:28:47;;;;;;;12.75;7.97;;;;;;;;;;5041195;28;20041;-85
2022/11/05 11:31:19;;;;;;;12.82;7.93;;;;;;;;;;5030504;28;20046;-85
2022/11/05 11:33:48;;;;;;;12.82;8.23;;;;;;;10.84;91.65;67973.06;5040224;28;20129;-85
2022/11/05 11:36:16;;;;;;;11.80;7.45;;;;;;;;;;5037277;28;20053;-86
2022/11/05 11:38:42;;;;;;;11.50;6.55;;;;;;;10.90;90.19;67984.06;5040416;28;20041;-85
2022/11/05 11:41:32;;;;;;;13.48;7.70;;;;;;;10.97;91.81;67987.28;5034286;28;20045;-86
2022/11/05 11:44:15;;;;;;;10.55;7.53;;;;;;;11.06;90.56;68004.91;5046721;28;20552;-86
2022/11/05 11:46:44;;;;;;;13.43;8.07;;;;;;;11.04;90.55;67995.22;5045257;28;20055;-86
2022/11/05 11:49:28;;;;;;;;;;;;;;;11.15;91.10;68006.56;5027501;28;20045;-86
2022/11/05 11:51:58;;;;;;;12.02;7.38;;;;;;;;;;5034943;28;19959;-86
2022/11/05 11:54:23;;;;;;;14.70;7.30;;;;;;;;;;5037542;28;20057;-87
2022/11/05 11:56:49;;;;;;;11.30;6.47;;;;;;;;;;5044997;28;20393;-87
2022/11/05 11:59:24;;;;;;;10.70;6.07;;;;;;;11.28;87.06;68026.66;5053248;28;20125;-85
2022/11/05 12:02:23;;;;;;;9.48;5.78;;;;;;;11.30;86.62;68029.47;5055606;28;20529;-86
2022/11/05 12:04:51;;;;;;;9.95;5.53;;;;;;;;;;5059549;28;20046;-85
2022/11/05 12:07:41;;;;;;;9.10;5.53;;;;;;;11.25;85.76;68023.25;5054200;28;20061;-86
2022/11/05 12:10:35;;;;;;;9.40;5.75;;;;;;;11.16;86.54;68007.69;5026225;28;20124;-86
2022/11/05 12:13:06;;;;;;;9.60;6.68;;;;;;;;;;5039729;28;20041;-86
2022/11/05 12:15:53;;;;;;;12.45;5.90;;;;;;;11.12;87.29;68008.50;5048694;28;20123;-86
2022/11/05 12:18:47;;;;;;;11.20;6.03;;;;;;;11.11;87.44;68007.38;5041586;28;20041;-86
2022/11/05 12:21:28;;;;;;;9.23;5.30;;;;;;;;;;5035737;28;20044;-85
2022/11/05 12:24:02;;;;;;;9.15;6.10;;;;;;;;;;5041065;28;20044;-86
2022/11/05 12:26:40;;;;;;;10.25;6.55;;;;;;;10.94;87.93;67988.63;5036239;28;20044;-86
2022/11/05 12:29:21;;;;;;;7.85;6.43;;;;;;;10.91;87.96;67979.91;5032196;28;20548;-86
2022/11/05 12:32:00;;;;;;;12.15;6.13;;;;;;;;;;5030246;28;20091;-86